Time;durP1;ratioP1;P1;durP2;ratioP2;P2;SDS_P1;SDS_P2;PMS_P1;PMS_P2;Temp;Humidity;BMP_temperature;BMP_pressure;BME280_temperature;BME280_humidity;BME280_pressure;Samples;Min_cycle;Max_cycle;Signal;HPM_P1;HPM_P2
2021/05/23 00:00:18;;;;;;;8.15;2.72;;;;;;;8.47;72.17;100942.34;699120;28;1284;-65
2021/05/23 00:00:42;;;;;;;8.45;2.70;;;;;;;8.48;72.33;100943.19;698895;28;920;-66
2021/05/23 00:01:02;;;;;;;8.75;2.40;;;;;;;8.48;71.93;100944.03;699267;28;1022;-65
2021/05/23 00:01:26;;;;;;;9.65;2.70;;;;;;;8.48;72.00;100944.03;697437;28;1009;-65
2021/05/23 00:01:46;;;;;;;8.57;2.67;;;;;;;8.49;72.14;100960.66;696584;28;979;-65
2021/05/23 00:02:09;;;;;;;8.95;2.92;;;;;;;8.45;72.14;100954.66;696446;28;966;-65
2021/05/23 00:02:31;;;;;;;7.68;2.88;;;;;;;8.45;72.20;100959.91;695909;28;1371;-66
2021/05/23 00:02:58;;;;;;;9.38;2.80;;;;;;;8.44;72.39;100958.19;695733;28;990;-65
2021/05/23 00:03:18;;;;;;;9.15;2.40;;;;;;;8.44;72.17;100958.19;695459;28;1011;-66
2021/05/23 00:03:39;;;;;;;8.07;2.50;;;;;;;8.43;72.46;100958.22;694884;28;896;-65
2021/05/23 00:03:59;;;;;;;8.52;2.40;;;;;;;8.42;72.22;100962.63;694523;28;1107;-65
2021/05/23 00:04:19;;;;;;;9.13;2.40;;;;;;;8.43;72.26;100961.72;694699;28;825;-66
2021/05/23 00:04:40;;;;;;;9.10;2.57;;;;;;;8.43;72.23;100964.34;694466;28;931;-65
2021/05/23 00:05:00;;;;;;;6.97;2.40;;;;;;;8.45;72.31;100964.28;694386;28;1006;-66
2021/05/23 00:05:24;;;;;;;10.20;2.60;;;;;;;8.46;72.35;100966.84;694560;28;904;-66
2021/05/23 00:05:45;;;;;;;10.00;2.50;;;;;;;8.45;72.58;100964.28;694478;28;897;-66
2021/05/23 00:06:06;;;;;;;9.10;2.53;;;;;;;8.46;72.61;100966.84;694714;28;1200;-66
2021/05/23 00:06:26;;;;;;;9.50;2.60;;;;;;;8.49;72.39;100964.13;694439;28;774;-66
2021/05/23 00:06:46;;;;;;;8.67;2.70;;;;;;;8.50;72.45;100963.25;694154;28;995;-69
2021/05/23 00:07:09;;;;;;;8.63;2.63;;;;;;;8.51;72.55;100961.47;694930;28;896;-65
2021/05/23 00:07:31;;;;;;;7.68;2.53;;;;;;;8.49;72.37;100972.03;696005;28;978;-67
2021/05/23 00:07:56;;;;;;;8.88;2.67;;;;;;;8.47;72.39;100968.59;696244;28;885;-65
2021/05/23 00:08:18;;;;;;;8.80;2.70;;;;;;;8.49;72.40;100964.13;696162;28;965;-64
2021/05/23 00:08:38;;;;;;;8.43;2.80;;;;;;;8.49;72.24;100969.41;695561;28;1817;-64
2021/05/23 00:08:59;;;;;;;7.20;2.70;;;;;;;8.49;72.16;100961.50;696400;28;904;-65
2021/05/23 00:09:19;;;;;;;8.57;2.63;;;;;;;8.50;72.27;100967.66;696545;28;805;-64
2021/05/23 00:09:40;;;;;;;8.97;2.70;;;;;;;8.50;72.08;100963.25;696531;28;1018;-65
2021/05/23 00:10:07;;;;;;;8.82;2.90;;;;;;;8.51;72.12;100969.38;696721;28;1018;-64
2021/05/23 00:10:30;;;;;;;8.10;2.38;;;;;;;8.50;72.24;100965.88;696543;28;874;-66
2021/05/23 00:11:02;;;;;;;9.15;2.60;;;;;;;8.46;72.65;100956.34;696805;28;884;-66
2021/05/23 00:11:22;;;;;;;8.32;2.53;;;;;;;8.48;72.65;100969.47;696314;28;1127;-65
2021/05/23 00:11:44;;;;;;;7.87;2.80;;;;;;;8.49;72.72;100964.13;695971;28;860;-65
2021/05/23 00:12:14;;;;;;;7.32;2.80;;;;;;;8.50;72.96;100965.88;694646;28;980;-66
2021/05/23 00:12:34;;;;;;;8.93;2.60;;;;;;;8.49;73.19;100965.91;694903;28;915;-66
2021/05/23 00:12:56;;;;;;;8.20;2.80;;;;;;;8.48;73.08;100965.06;694894;28;1033;-65
2021/05/23 00:13:19;;;;;;;8.02;2.70;;;;;;;8.49;72.92;100964.13;695103;28;1049;-65
2021/05/23 00:13:45;;;;;;;8.60;2.70;;;;;;;8.52;72.77;100957.94;695122;28;982;-64
2021/05/23 00:14:05;;;;;;;9.77;2.90;;;;;;;8.52;72.92;100955.31;695096;28;969;-65
2021/05/23 00:14:25;;;;;;;9.27;3.20;;;;;;;8.54;72.76;100953.50;694835;28;1052;-64
2021/05/23 00:14:47;;;;;;;8.73;2.93;;;;;;;8.52;72.96;100950.91;694849;28;1046;-65
2021/05/23 00:15:10;;;;;;;9.35;2.53;;;;;;;8.51;73.24;100958.84;694744;28;901;-64
2021/05/23 00:15:43;;;;;;;7.57;2.80;;;;;;;8.48;73.37;100962.44;694434;28;1298;-65
2021/05/23 00:16:10;;;;;;;7.47;2.70;;;;;;;8.48;72.94;100964.19;694565;28;838;-64
2021/05/23 00:16:30;;;;;;;10.35;2.70;;;;;;;8.46;73.04;100958.97;694324;28;999;-65
2021/05/23 00:16:51;;;;;;;10.35;3.00;;;;;;;8.45;72.95;100965.16;694139;28;1038;-64
2021/05/23 00:17:11;;;;;;;7.63;2.70;;;;;;;8.48;72.91;100958.94;694029;28;975;-64
2021/05/23 00:17:31;;;;;;;9.00;2.97;;;;;;;8.49;72.82;100953.63;694102;28;1050;-64
2021/05/23 00:17:54;;;;;;;8.60;2.77;;;;;;;8.49;73.16;100966.78;693919;28;1970;-65
2021/05/23 00:18:15;;;;;;;9.57;2.83;;;;;;;8.50;72.97;100952.75;694166;28;881;-65
2021/05/23 00:18:40;;;;;;;10.10;2.95;;;;;;;8.50;72.43;100946.63;693485;28;968;-64
2021/05/23 00:19:01;;;;;;;8.30;2.88;;;;;;;8.50;72.23;100959.78;694077;28;966;-65
2021/05/23 00:19:21;;;;;;;9.20;2.60;;;;;;;8.50;72.01;100959.78;693949;28;896;-65
2021/05/23 00:19:41;;;;;;;9.27;2.80;;;;;;;8.50;72.13;100958.00;694103;28;963;-65
2021/05/23 00:20:02;;;;;;;9.27;2.90;;;;;;;8.51;72.32;100964.13;694083;28;915;-64
2021/05/23 00:20:27;;;;;;;8.73;2.80;;;;;;;8.51;72.04;100951.84;694043;28;984;-64
2021/05/23 00:20:47;;;;;;;7.18;2.70;;;;;;;8.50;72.16;100955.38;693969;28;827;-64
2021/05/23 00:21:09;;;;;;;9.70;2.77;;;;;;;8.48;71.95;100949.28;694105;28;932;-64
2021/05/23 00:21:31;;;;;;;10.15;2.78;;;;;;;8.48;72.11;100954.56;694061;28;871;-64
2021/05/23 00:21:51;;;;;;;9.23;2.67;;;;;;;8.49;72.31;100948.38;696550;28;1088;-65
2021/05/23 00:22:15;;;;;;;9.50;2.90;;;;;;;8.48;72.31;100943.19;696566;28;910;-65
2021/05/23 00:22:36;;;;;;;8.00;2.58;;;;;;;8.48;72.57;100959.81;696684;28;888;-65
2021/05/23 00:22:56;;;;;;;7.35;2.72;;;;;;;8.49;72.60;100950.16;696365;28;1017;-63
2021/05/23 00:23:17;;;;;;;8.80;2.92;;;;;;;8.49;72.60;100961.50;696671;28;820;-64
2021/05/23 00:23:37;;;;;;;8.57;2.70;;;;;;;8.46;72.39;100961.59;695895;28;986;-65
2021/05/23 00:23:58;;;;;;;8.93;2.72;;;;;;;8.44;72.75;100959.97;694001;28;844;-64
2021/05/23 00:24:19;;;;;;;9.60;2.70;;;;;;;8.46;72.30;100964.22;696539;28;1002;-64
2021/05/23 00:24:39;;;;;;;10.35;2.88;;;;;;;8.44;72.59;100958.19;696655;28;828;-64
2021/05/23 00:25:00;;;;;;;9.43;2.80;;;;;;;8.43;72.62;100956.47;696719;28;935;-64
2021/05/23 00:25:22;;;;;;;9.20;2.73;;;;;;;8.43;72.17;100959.09;696975;28;790;-65
2021/05/23 00:25:42;;;;;;;8.65;2.63;;;;;;;8.41;71.93;100958.28;696628;28;828;-65
2021/05/23 00:26:03;;;;;;;9.35;2.90;;;;;;;8.42;71.84;100962.63;693838;28;990;-65
2021/05/23 00:26:26;;;;;;;8.95;3.10;;;;;;;8.42;71.93;100960.00;694095;28;935;-65
2021/05/23 00:26:47;;;;;;;8.00;2.67;;;;;;;8.40;72.04;100961.81;693765;28;1541;-66
2021/05/23 00:27:07;;;;;;;9.18;3.03;;;;;;;8.36;72.48;100954.03;694029;28;982;-65
2021/05/23 00:27:27;;;;;;;8.10;2.87;;;;;;;8.33;72.60;100958.50;691170;28;1150;-65
2021/05/23 00:27:48;;;;;;;8.63;2.63;;;;;;;8.36;72.34;100962.75;692014;28;959;-64
2021/05/23 00:28:10;;;;;;;9.77;2.70;;;;;;;8.36;72.81;100956.66;694121;28;813;-65
2021/05/23 00:28:31;;;;;;;10.50;3.00;;;;;;;8.39;72.98;100965.34;693574;28;966;-64
2021/05/23 00:28:52;;;;;;;7.97;2.85;;;;;;;8.40;73.08;100960.97;693871;28;911;-64
2021/05/23 00:29:13;;;;;;;7.85;2.50;;;;;;;8.38;73.06;100963.63;693961;28;946;-65
2021/05/23 00:29:33;;;;;;;9.53;2.67;;;;;;;8.40;73.00;100961.81;694230;28;1030;-65
2021/05/23 00:29:53;;;;;;;10.43;2.93;;;;;;;8.41;73.33;100963.53;694320;28;919;-65
2021/05/23 00:30:15;;;;;;;8.57;2.90;;;;;;;8.44;73.39;100965.22;694041;28;1220;-64
2021/05/23 00:30:36;;;;;;;7.57;2.97;;;;;;;8.45;73.20;100953.78;694458;28;1080;-65
2021/05/23 00:30:56;;;;;;;7.70;2.63;;;;;;;8.43;73.46;100959.09;694299;28;992;-64
2021/05/23 00:31:17;;;;;;;8.52;2.60;;;;;;;8.45;73.22;100965.16;694281;28;1066;-65
2021/05/23 00:31:38;;;;;;;9.67;2.73;;;;;;;8.45;73.46;100959.91;694248;28;1040;-65
2021/05/23 00:31:59;;;;;;;8.05;2.75;;;;;;;8.45;73.03;100965.16;694240;28;944;-66
2021/05/23 00:32:19;;;;;;;7.97;2.92;;;;;;;8.46;73.40;100961.59;694514;28;1166;-65
2021/05/23 00:32:40;;;;;;;9.93;3.13;;;;;;;8.46;73.40;100960.75;694443;28;836;-65
2021/05/23 00:33:05;;;;;;;11.95;2.90;;;;;;;8.44;73.44;100960.81;694220;28;893;-66
2021/05/23 00:33:25;;;;;;;8.38;2.90;;;;;;;8.46;73.12;100964.22;694513;28;1019;-65
2021/05/23 00:33:45;;;;;;;8.50;3.00;;;;;;;8.46;73.51;100963.38;694185;28;884;-65
2021/05/23 00:34:06;;;;;;;9.37;2.87;;;;;;;8.41;73.11;100958.28;694001;28;928;-65
2021/05/23 00:34:26;;;;;;;9.65;2.90;;;;;;;8.38;73.49;100953.13;694076;28;902;-64
2021/05/23 00:34:46;;;;;;;9.03;2.93;;;;;;;8.39;73.28;100959.22;694041;28;825;-64
2021/05/23 00:35:07;;;;;;;7.90;2.80;;;;;;;8.37;73.48;100961.88;693937;28;995;-64
2021/05/23 00:35:29;;;;;;;8.70;2.90;;;;;;;8.37;73.43;100961.88;693941;28;1088;-64
2021/05/23 00:35:49;;;;;;;9.32;2.72;;;;;;;8.36;73.48;100960.13;693760;28;1526;-64
2021/05/23 00:36:10;;;;;;;7.75;3.00;;;;;;;8.36;73.60;100960.13;693811;28;1017;-64
2021/05/23 00:36:30;;;;;;;9.13;2.80;;;;;;;8.38;73.53;100963.63;691025;28;964;-64
2021/05/23 00:36:53;;;;;;;7.68;2.70;;;;;;;8.42;73.49;100964.38;691156;28;809;-65
2021/05/23 00:37:13;;;;;;;7.93;2.85;;;;;;;8.42;73.50;100967.00;691129;28;903;-64
2021/05/23 00:37:33;;;;;;;7.82;2.70;;;;;;;8.44;73.55;100963.44;691454;28;990;-64
2021/05/23 00:37:53;;;;;;;9.30;2.80;;;;;;;8.45;73.49;100959.91;693835;28;1917;-64
2021/05/23 00:38:14;;;;;;;9.70;3.20;;;;;;;8.44;73.92;100962.59;693795;28;817;-65
2021/05/23 00:38:34;;;;;;;9.82;2.83;;;;;;;8.45;73.65;100956.41;693458;28;922;-64
2021/05/23 00:38:55;;;;;;;8.07;3.00;;;;;;;8.44;73.93;100968.69;693943;28;979;-65
2021/05/23 00:39:16;;;;;;;8.60;3.25;;;;;;;8.45;74.14;100959.91;693684;28;952;-64
2021/05/23 00:39:36;;;;;;;8.18;3.38;;;;;;;8.43;74.35;100972.25;693272;28;1682;-65
2021/05/23 00:39:56;;;;;;;9.50;3.53;;;;;;;8.41;74.47;100967.94;693860;28;870;-65
2021/05/23 00:40:17;;;;;;;9.50;3.20;;;;;;;8.41;74.44;100967.94;693577;28;1287;-65
2021/05/23 00:40:37;;;;;;;10.57;3.60;;;;;;;8.37;74.73;100967.13;693835;28;821;-65
2021/05/23 00:40:58;;;;;;;9.13;3.33;;;;;;;8.33;74.87;100965.50;693738;28;905;-65
2021/05/23 00:41:21;;;;;;;8.43;3.20;;;;;;;8.28;75.15;100967.41;693878;28;912;-63
2021/05/23 00:41:41;;;;;;;8.50;3.47;;;;;;;8.30;74.89;100965.59;693927;28;1310;-64
2021/05/23 00:42:02;;;;;;;8.03;3.33;;;;;;;8.32;74.90;100963.78;694006;28;1066;-63
2021/05/23 00:42:22;;;;;;;8.60;3.30;;;;;;;8.33;75.07;100969.00;696525;28;950;-64
2021/05/23 00:42:42;;;;;;;10.17;3.40;;;;;;;8.33;74.86;100970.75;696508;28;1038;-64
2021/05/23 00:43:10;;;;;;;9.90;3.67;;;;;;;8.28;74.97;100967.41;696431;28;915;-64
2021/05/23 00:43:30;;;;;;;11.32;3.85;;;;;;;8.30;75.01;100973.47;696481;28;1006;-64
2021/05/23 00:43:51;;;;;;;10.48;3.80;;;;;;;8.29;74.83;100971.75;696520;28;812;-64
2021/05/23 00:44:11;;;;;;;9.17;3.33;;;;;;;8.30;74.85;100976.97;695480;28;852;-63
2021/05/23 00:44:31;;;;;;;9.17;3.13;;;;;;;8.29;74.71;100972.63;693798;28;903;-64
2021/05/23 00:44:52;;;;;;;9.17;3.50;;;;;;;8.30;74.56;100976.97;693767;28;934;-64
2021/05/23 00:45:17;;;;;;;8.35;3.50;;;;;;;8.32;74.53;100969.88;693825;28;883;-64
2021/05/23 00:45:39;;;;;;;9.10;3.70;;;;;;;8.34;74.18;100980.34;693685;28;836;-65
2021/05/23 00:46:00;;;;;;;9.43;3.53;;;;;;;8.36;74.21;100975.03;693821;28;907;-64
2021/05/23 00:46:20;;;;;;;10.52;3.58;;;;;;;8.32;74.16;100976.91;693889;28;821;-64
2021/05/23 00:46:49;;;;;;;9.73;3.57;;;;;;;8.31;74.50;100972.56;693951;28;920;-64
2021/05/23 00:47:12;;;;;;;9.38;3.50;;;;;;;8.32;74.41;100979.53;693842;28;989;-64
2021/05/23 00:47:33;;;;;;;7.38;3.20;;;;;;;8.30;74.90;100976.09;693914;28;804;-64
2021/05/23 00:47:53;;;;;;;7.35;3.38;;;;;;;8.29;74.42;100975.25;694028;28;929;-64
2021/05/23 00:48:18;;;;;;;8.67;3.47;;;;;;;8.34;74.87;100972.47;693900;28;1250;-64
2021/05/23 00:48:38;;;;;;;9.18;3.28;;;;;;;8.36;74.44;100975.03;693282;28;963;-64
2021/05/23 00:48:58;;;;;;;8.85;3.33;;;;;;;8.35;74.58;100975.97;693872;28;889;-64
2021/05/23 00:49:19;;;;;;;8.50;3.30;;;;;;;8.33;74.60;100971.63;693587;28;1134;-64
2021/05/23 00:49:40;;;;;;;9.15;3.70;;;;;;;8.34;74.57;100975.09;693370;28;952;-64
2021/05/23 00:50:00;;;;;;;8.43;3.70;;;;;;;8.36;74.40;100983.78;693835;28;938;-64
2021/05/23 00:50:30;;;;;;;8.20;3.70;;;;;;;8.34;74.53;100977.72;693814;28;832;-63
2021/05/23 00:50:51;;;;;;;8.88;3.50;;;;;;;8.30;74.97;100974.34;693966;28;883;-63
2021/05/23 00:51:11;;;;;;;9.18;3.45;;;;;;;8.24;75.63;100978.91;693925;28;895;-64
2021/05/23 00:51:31;;;;;;;10.60;3.70;;;;;;;8.24;75.43;100977.13;694057;28;858;-63
2021/05/23 00:51:54;;;;;;;11.63;3.50;;;;;;;8.24;75.72;100976.28;693998;28;903;-64
2021/05/23 00:52:14;;;;;;;10.32;3.63;;;;;;;8.23;75.62;100974.56;693948;28;958;-63
2021/05/23 00:52:36;;;;;;;10.03;3.60;;;;;;;8.24;75.64;100973.66;693969;28;1026;-64
2021/05/23 00:52:59;;;;;;;8.27;3.20;;;;;;;8.27;75.90;100981.44;693780;28;936;-64
2021/05/23 00:53:20;;;;;;;8.73;3.38;;;;;;;8.27;75.98;100981.44;693967;28;953;-64
2021/05/23 00:53:43;;;;;;;7.72;3.40;;;;;;;8.28;76.02;100973.50;694061;28;875;-65
2021/05/23 00:54:04;;;;;;;8.00;3.40;;;;;;;8.26;76.22;100977.09;693917;28;824;-64
2021/05/23 00:54:24;;;;;;;8.95;3.50;;;;;;;8.27;76.46;100982.31;693962;28;961;-64
2021/05/23 00:54:44;;;;;;;9.77;3.55;;;;;;;8.30;76.06;100978.72;693795;28;998;-64
2021/05/23 00:55:05;;;;;;;7.93;3.47;;;;;;;8.31;76.08;100975.19;693867;28;1000;-64
2021/05/23 00:55:26;;;;;;;8.80;3.65;;;;;;;8.31;76.06;100983.06;693923;28;1660;-65
2021/05/23 00:55:46;;;;;;;8.65;3.60;;;;;;;8.33;75.90;100982.13;693865;28;1005;-64
2021/05/23 00:56:09;;;;;;;8.83;3.40;;;;;;;8.35;76.09;100979.44;694055;28;827;-64
2021/05/23 00:56:30;;;;;;;10.25;3.50;;;;;;;8.37;75.75;100982.88;693832;28;925;-65
2021/05/23 00:56:52;;;;;;;11.63;3.67;;;;;;;8.35;75.71;100974.19;693864;28;880;-64
2021/05/23 00:57:14;;;;;;;9.25;3.42;;;;;;;8.32;75.84;100976.91;693811;28;1057;-65
2021/05/23 00:57:34;;;;;;;10.13;3.63;;;;;;;8.32;75.92;100977.75;693785;28;1008;-64
2021/05/23 00:57:55;;;;;;;8.52;3.22;;;;;;;8.35;75.78;100973.31;693848;28;1902;-65
2021/05/23 00:58:16;;;;;;;9.13;3.60;;;;;;;8.34;75.48;100977.72;693900;28;738;-65
2021/05/23 00:58:36;;;;;;;9.43;3.60;;;;;;;8.37;75.43;100982.03;693442;28;924;-65
2021/05/23 00:58:56;;;;;;;9.57;3.57;;;;;;;8.38;75.51;100978.53;693602;28;1214;-64
2021/05/23 00:59:19;;;;;;;8.93;3.63;;;;;;;8.38;75.23;100975.91;693309;28;1334;-65
2021/05/23 00:59:39;;;;;;;8.70;3.55;;;;;;;8.38;75.32;100968.03;693744;28;1276;-65
2021/05/23 01:00:06;;;;;;;8.93;3.43;;;;;;;8.35;74.73;100963.69;693654;28;1306;-65
2021/05/23 01:00:41;;;;;;;9.95;3.67;;;;;;;8.36;74.78;100982.91;690946;28;1146;-65
2021/05/23 01:01:13;;;;;;;9.90;3.63;;;;;;;8.35;75.03;100979.44;690729;28;864;-65
2021/05/23 01:01:45;;;;;;;8.48;3.65;;;;;;;8.36;74.91;100975.91;692686;28;844;-65
2021/05/23 01:02:06;;;;;;;9.02;3.92;;;;;;;8.39;74.90;100980.22;693581;28;1064;-64
2021/05/23 01:02:38;;;;;;;9.03;3.70;;;;;;;8.35;75.12;100982.06;694024;28;836;-65
2021/05/23 01:03:02;;;;;;;8.50;3.45;;;;;;;8.37;75.21;100977.63;693870;28;886;-65
2021/05/23 01:03:29;;;;;;;11.18;3.80;;;;;;;8.39;75.60;100982.88;693980;28;897;-65
2021/05/23 01:03:49;;;;;;;9.32;3.60;;;;;;;8.35;75.83;100989.94;693927;28;900;-65
2021/05/23 01:04:10;;;;;;;9.93;3.87;;;;;;;8.32;75.96;100985.63;693872;28;991;-65
2021/05/23 01:04:30;;;;;;;10.18;4.00;;;;;;;8.32;76.04;100985.63;693982;28;909;-65
2021/05/23 01:04:50;;;;;;;6.50;3.78;;;;;;;8.31;76.26;100983.06;693864;28;1068;-64
2021/05/23 01:05:19;;;;;;;7.63;3.87;;;;;;;8.34;76.58;100985.59;693782;28;904;-64
2021/05/23 01:05:39;;;;;;;8.25;3.50;;;;;;;8.32;76.42;100982.16;696350;28;899;-66
2021/05/23 01:06:08;;;;;;;10.05;3.53;;;;;;;8.34;76.62;100982.97;696205;28;851;-65
2021/05/23 01:06:32;;;;;;;9.35;3.70;;;;;;;8.26;76.20;100977.09;695844;28;899;-65
2021/05/23 01:06:52;;;;;;;10.18;4.05;;;;;;;8.28;76.02;100984.00;696540;28;1010;-65
2021/05/23 01:07:12;;;;;;;11.68;3.95;;;;;;;8.28;76.22;100985.78;696251;28;1054;-65
2021/05/23 01:07:33;;;;;;;10.67;3.70;;;;;;;8.29;76.42;100979.63;693977;28;867;-66
2021/05/23 01:07:53;;;;;;;8.85;3.45;;;;;;;8.32;76.05;100985.63;693930;28;896;-65
2021/05/23 01:08:22;;;;;;;8.00;3.47;;;;;;;8.36;76.22;100985.53;693842;28;1180;-65
2021/05/23 01:08:46;;;;;;;7.68;3.28;;;;;;;8.38;76.07;100979.38;693548;28;902;-65
2021/05/23 01:09:08;;;;;;;8.02;3.38;;;;;;;8.38;76.08;100984.63;694174;28;1159;-65
2021/05/23 01:09:28;;;;;;;9.10;3.80;;;;;;;8.39;76.06;100981.09;693809;28;807;-65
2021/05/23 01:09:48;;;;;;;9.93;4.07;;;;;;;8.38;76.17;100984.63;693892;28;1041;-65
2021/05/23 01:10:14;;;;;;;10.02;4.22;;;;;;;8.40;76.49;100987.22;693886;28;1269;-65
2021/05/23 01:10:51;;;;;;;9.40;3.65;;;;;;;8.41;76.12;100987.16;693991;28;854;-65
2021/05/23 01:11:17;;;;;;;9.80;4.00;;;;;;;8.43;76.08;100989.75;693725;28;1034;-65
2021/05/23 01:11:40;;;;;;;8.23;3.70;;;;;;;8.40;75.72;100988.09;693788;28;1099;-65
2021/05/23 01:12:58;;;;;;;8.55;3.60;;;;;;;8.42;75.67;100991.50;693930;28;804;-65
2021/05/23 01:13:33;;;;;;;8.48;3.70;;;;;;;8.41;75.64;100989.78;693438;28;910;-65
2021/05/23 01:13:57;;;;;;;11.80;3.95;;;;;;;8.40;75.80;100987.22;693034;28;1031;-65
2021/05/23 01:14:57;;;;;;;9.68;4.00;;;;;;;8.44;75.79;100989.72;693588;28;807;-65
2021/05/23 01:15:17;;;;;;;11.15;3.97;;;;;;;8.43;76.16;100993.25;693421;28;981;-65
2021/05/23 01:15:44;;;;;;;11.23;3.87;;;;;;;8.42;75.82;100986.25;693389;28;887;-66
2021/05/23 01:16:32;;;;;;;9.88;3.55;;;;;;;8.44;75.95;100983.59;692789;28;1068;-65
2021/05/23 01:16:56;;;;;;;8.50;3.90;;;;;;;8.44;76.17;100987.09;693616;28;962;-65
2021/05/23 01:17:21;;;;;;;10.73;3.95;;;;;;;8.41;76.14;100987.16;693511;28;902;-66
2021/05/23 01:17:46;;;;;;;9.38;3.72;;;;;;;8.42;76.15;100988.88;693282;28;1902;-65
2021/05/23 01:18:13;;;;;;;9.38;4.10;;;;;;;8.40;75.99;100988.09;693572;28;1078;-65
2021/05/23 01:18:58;;;;;;;9.35;3.90;;;;;;;8.39;75.90;100981.09;693080;28;883;-65
2021/05/23 01:19:33;;;;;;;9.52;3.83;;;;;;;8.42;75.94;100996.75;693652;28;1907;-65
2021/05/23 01:20:26;;;;;;;9.45;4.10;;;;;;;8.45;76.08;100987.94;694038;28;1062;-65
2021/05/23 01:20:50;;;;;;;11.32;4.30;;;;;;;8.44;75.82;100988.84;690626;28;1318;-64
2021/05/23 01:21:11;;;;;;;8.75;4.18;;;;;;;8.48;75.80;100990.47;690684;28;1347;-64
2021/05/23 01:21:35;;;;;;;9.97;4.37;;;;;;;8.48;75.83;100987.84;693103;28;1340;-64
2021/05/23 01:22:19;;;;;;;10.70;4.30;;;;;;;8.44;76.07;100987.09;693595;28;901;-64
2021/05/23 01:22:45;;;;;;;10.95;4.22;;;;;;;8.45;76.16;100985.31;693737;28;983;-64
2021/05/23 01:23:21;;;;;;;9.52;4.45;;;;;;;8.43;76.25;100988.00;693817;28;1267;-64
2021/05/23 01:23:48;;;;;;;12.05;4.47;;;;;;;8.41;76.30;100984.53;693865;28;929;-64
2021/05/23 01:24:38;;;;;;;10.38;4.50;;;;;;;8.43;76.65;100988.00;693912;28;1014;-65
2021/05/23 01:25:11;;;;;;;8.23;4.05;;;;;;;8.39;76.36;100985.50;693911;28;853;-64
2021/05/23 01:25:31;;;;;;;9.85;4.35;;;;;;;8.41;76.71;100987.16;693792;28;969;-65
2021/05/23 01:25:57;;;;;;;10.38;4.10;;;;;;;8.40;76.32;100985.47;693803;28;999;-64
2021/05/23 01:26:25;;;;;;;9.52;4.47;;;;;;;8.35;76.72;100984.69;693851;28;966;-65
2021/05/23 01:26:52;;;;;;;10.90;4.40;;;;;;;8.34;76.86;100982.97;693821;28;1082;-65
2021/05/23 01:27:36;;;;;;;10.25;4.50;;;;;;;8.38;76.92;100984.63;693789;28;851;-64
2021/05/23 01:27:57;;;;;;;8.68;3.97;;;;;;;8.43;76.61;100988.00;696370;28;868;-64
2021/05/23 01:28:19;;;;;;;8.68;4.30;;;;;;;8.42;76.45;100982.78;696386;28;900;-64
2021/05/23 01:28:55;;;;;;;9.24;4.08;;;;;;;8.44;76.31;100979.19;696103;28;860;-64
2021/05/23 01:29:16;;;;;;;9.80;4.38;;;;;;;8.43;76.54;100981.84;696422;28;974;-65
2021/05/23 01:29:39;;;;;;;10.20;4.57;;;;;;;8.40;76.49;100985.47;695701;28;935;-64
2021/05/23 01:30:01;;;;;;;12.93;4.40;;;;;;;8.39;76.26;100982.88;693686;28;1410;-65
2021/05/23 01:30:31;;;;;;;9.68;4.10;;;;;;;8.42;76.28;100982.78;694020;28;963;-64
2021/05/23 01:30:56;;;;;;;9.85;3.92;;;;;;;8.42;76.12;100981.00;693945;28;951;-64
2021/05/23 01:31:19;;;;;;;9.57;4.20;;;;;;;8.41;75.92;100983.69;693493;28;1136;-64
2021/05/23 01:31:42;;;;;;;9.40;4.32;;;;;;;8.40;75.90;100981.97;693655;28;885;-65
2021/05/23 01:32:03;;;;;;;9.50;4.22;;;;;;;8.36;75.40;100985.53;693593;28;1164;-63
2021/05/23 01:32:23;;;;;;;10.13;4.10;;;;;;;8.41;75.05;100984.53;693698;28;1055;-64
2021/05/23 01:32:47;;;;;;;9.93;4.00;;;;;;;8.48;74.71;100978.19;693458;28;1321;-65
2021/05/23 01:33:07;;;;;;;9.20;4.32;;;;;;;8.47;74.50;100980.88;693841;28;951;-64
2021/05/23 01:33:27;;;;;;;12.60;4.40;;;;;;;8.50;74.60;100984.28;693922;28;820;-64
2021/05/23 01:33:53;;;;;;;11.13;4.03;;;;;;;8.51;74.36;100985.13;693972;28;839;-64
2021/05/23 01:34:20;;;;;;;8.50;3.90;;;;;;;8.53;74.47;100978.94;693751;28;1075;-63
2021/05/23 01:34:44;;;;;;;10.45;4.07;;;;;;;8.54;74.54;100980.63;693945;28;844;-64
2021/05/23 01:35:08;;;;;;;10.75;4.53;;;;;;;8.53;74.59;100978.94;694054;28;884;-63
2021/05/23 01:35:38;;;;;;;10.05;4.97;;;;;;;8.48;75.08;100985.22;693865;28;1018;-65
2021/05/23 01:35:59;;;;;;;10.63;4.90;;;;;;;8.48;74.83;100986.06;694070;28;852;-65
2021/05/23 01:36:26;;;;;;;10.90;4.70;;;;;;;8.49;74.94;100985.16;693812;28;895;-63
2021/05/23 01:36:48;;;;;;;10.38;4.63;;;;;;;8.48;75.30;100980.81;693706;28;1173;-65
2021/05/23 01:37:15;;;;;;;10.60;4.65;;;;;;;8.52;74.93;100986.84;696479;28;1096;-65
2021/05/23 01:37:36;;;;;;;10.75;4.35;;;;;;;8.50;75.21;100981.66;696360;28;898;-64
2021/05/23 01:38:00;;;;;;;10.35;4.47;;;;;;;8.49;74.71;100985.16;696338;28;1980;-64
2021/05/23 01:38:21;;;;;;;10.10;4.50;;;;;;;8.55;74.52;100978.88;696347;28;904;-64
2021/05/23 01:38:42;;;;;;;10.07;4.50;;;;;;;8.58;74.32;100980.53;696018;28;897;-64
2021/05/23 01:39:14;;;;;;;9.90;4.40;;;;;;;8.53;74.49;100978.94;694529;28;840;-64
2021/05/23 01:39:34;;;;;;;8.80;4.25;;;;;;;8.58;74.31;100983.19;693700;28;1124;-64
2021/05/23 01:39:55;;;;;;;10.03;4.47;;;;;;;8.58;74.35;100983.19;693888;28;1022;-64
2021/05/23 01:40:17;;;;;;;9.73;4.40;;;;;;;8.59;74.61;100977.00;693498;28;1382;-64
2021/05/23 01:40:41;;;;;;;8.50;3.83;;;;;;;8.62;74.52;100971.66;693888;28;1298;-64
2021/05/23 01:41:05;;;;;;;7.22;3.67;;;;;;;8.63;74.27;100968.09;693838;28;894;-64
2021/05/23 01:41:26;;;;;;;9.50;4.20;;;;;;;8.62;74.68;100975.13;693860;28;901;-64
2021/05/23 01:41:47;;;;;;;11.57;4.30;;;;;;;8.62;74.81;100971.66;693746;28;846;-64
2021/05/23 01:42:09;;;;;;;9.52;4.20;;;;;;;8.64;74.51;100970.69;693954;28;824;-64
2021/05/23 01:42:31;;;;;;;9.07;3.97;;;;;;;8.65;74.90;100971.56;693865;28;1038;-65
2021/05/23 01:42:52;;;;;;;10.02;4.25;;;;;;;8.67;74.83;100974.97;693820;28;943;-65
2021/05/23 01:43:13;;;;;;;9.10;3.97;;;;;;;8.67;74.54;100970.63;693901;28;998;-64
2021/05/23 01:43:34;;;;;;;8.13;3.65;;;;;;;8.69;74.48;100973.19;693758;28;982;-64
2021/05/23 01:43:57;;;;;;;10.10;4.30;;;;;;;8.67;74.53;100960.09;693777;28;868;-64
2021/05/23 01:44:18;;;;;;;10.35;4.25;;;;;;;8.70;74.56;100959.97;693843;28;885;-64
2021/05/23 01:44:39;;;;;;;10.15;4.10;;;;;;;8.72;74.58;100967.81;693585;28;1045;-63
2021/05/23 01:45:00;;;;;;;9.93;4.07;;;;;;;8.72;74.46;100965.19;693955;28;1038;-65
2021/05/23 01:45:21;;;;;;;9.55;4.15;;;;;;;8.74;74.25;100966.00;693832;28;903;-65
2021/05/23 01:45:41;;;;;;;9.57;4.00;;;;;;;8.75;74.45;100962.47;693785;28;927;-65
2021/05/23 01:46:03;;;;;;;9.23;4.20;;;;;;;8.74;74.84;100961.63;693880;28;855;-64
2021/05/23 01:46:23;;;;;;;8.48;4.28;;;;;;;8.74;74.54;100961.63;693859;28;944;-64
2021/05/23 01:46:44;;;;;;;8.93;4.10;;;;;;;8.72;75.17;100957.31;693768;28;988;-64
2021/05/23 01:47:06;;;;;;;10.68;4.28;;;;;;;8.69;74.79;100957.41;693914;28;875;-64
2021/05/23 01:47:26;;;;;;;10.23;4.20;;;;;;;8.69;74.86;100960.03;693669;28;876;-64
2021/05/23 01:47:47;;;;;;;11.32;4.15;;;;;;;8.68;75.09;100960.97;693798;28;908;-64
2021/05/23 01:48:09;;;;;;;12.33;4.63;;;;;;;8.72;74.90;100962.56;693825;28;918;-64
2021/05/23 01:48:32;;;;;;;11.63;4.25;;;;;;;8.72;74.68;100963.44;693440;28;1041;-64
2021/05/23 01:48:52;;;;;;;10.10;3.90;;;;;;;8.71;74.98;100966.13;693729;28;876;-64
2021/05/23 01:49:12;;;;;;;11.17;3.97;;;;;;;8.73;75.03;100964.28;693870;28;984;-65
2021/05/23 01:49:33;;;;;;;10.03;3.73;;;;;;;8.73;74.81;100964.28;693851;28;862;-64
2021/05/23 01:49:53;;;;;;;9.63;3.70;;;;;;;8.70;75.10;100962.59;693792;28;1289;-63
2021/05/23 01:50:16;;;;;;;10.45;3.95;;;;;;;8.68;74.77;100960.97;693861;28;816;-65
2021/05/23 01:50:38;;;;;;;10.32;4.30;;;;;;;8.70;74.64;100961.75;693836;28;879;-64
2021/05/23 01:50:58;;;;;;;10.05;4.22;;;;;;;8.71;74.88;100955.59;693606;28;1042;-64
2021/05/23 01:51:19;;;;;;;10.47;4.17;;;;;;;8.71;74.58;100966.13;693900;28;851;-63
2021/05/23 01:51:39;;;;;;;9.95;3.85;;;;;;;8.72;74.61;100957.31;693826;28;942;-64
2021/05/23 01:51:59;;;;;;;7.77;3.87;;;;;;;8.75;74.48;100962.47;693786;28;801;-65
2021/05/23 01:52:21;;;;;;;9.60;4.00;;;;;;;8.75;73.99;100962.47;693858;28;640;-64
2021/05/23 01:52:57;;;;;;;10.02;4.03;;;;;;;8.72;73.81;100965.19;693826;28;884;-64
2021/05/23 01:53:17;;;;;;;11.80;4.22;;;;;;;8.70;74.09;100959.97;693754;28;1093;-65